Lawrence, Nebraska
Current Conditions -  °F | °C
As of 2:53 AM on Thursday 23 Oct 2014 (Local Time) from KHSI Reporting Station
Moderate Fog Moderate Fog  
Wind Chill: 52°   Ceiling: 100
Heat Index: 52°   Visibility: 0.25mi
Dew Point: 50°   Wind: 3mph
Humidity: 93%   Direction: 290°WNW
Pressure: 30.06"   Gusts: NA
Location:  40.29°N, 98.26°W
Report Text: KHSI 230753Z AUTO 29003KT 1/4SM FG VV001 11/10 A3006 RMK AO2 SLP176 T01110100
Loading
Personal Weather Stations






























Interactive Weather Map
Tropical Storm Tracking
New forecast layout! Learn more

10-Day Weather Forecast

Advertisements
Track Severe Weather on mobile